Time;durP1;ratioP1;P1;durP2;ratioP2;P2;SDS_P1;SDS_P2;PMS_P1;PMS_P2;Temp;Humidity;BMP_temperature;BMP_pressure;BME280_temperature;BME280_humidity;BME280_pressure;Samples;Min_cycle;Max_cycle;Signal;HPM_P1;HPM_P2
2022/12/16 00:00:34;;;;;;;41.63;25.60;;;;;;;;;;5092243;27;20050;-71
2022/12/16 00:03:00;;;;;;;38.40;25.58;;;;;;;;;;5096015;27;20096;-71
2022/12/16 00:05:27;;;;;;;40.17;26.23;;;;;;;;;;5096408;27;20049;-71
2022/12/16 00:07:54;;;;;;;39.63;26.20;;;;;;;;;;5092923;27;20038;-72
2022/12/16 00:10:20;;;;;;;36.60;24.45;;;;;;;;;;5095549;27;20047;-71
2022/12/16 00:12:46;;;;;;;43.15;26.02;;;;;;;;;;5098078;27;20035;-71
2022/12/16 00:15:12;;;;;;;35.58;23.05;;;;;;;;;;5097437;27;20043;-71
2022/12/16 00:17:38;;;;;;;35.95;24.33;;;;;;;;;;5093888;27;21377;-71
2022/12/16 00:20:05;;;;;;;32.08;21.65;;;;;;;;;;5083348;27;21871;-71
2022/12/16 00:22:31;;;;;;;25.15;18.00;;;;;;;;;;5098248;27;20046;-70
2022/12/16 00:24:57;;;;;;;22.60;16.10;;;;;;;;;;5104582;27;20486;-71
2022/12/16 00:27:23;;;;;;;25.63;14.75;;;;;;;;;;5096209;27;20135;-71
2022/12/16 00:29:49;;;;;;;18.73;13.13;;;;;;;;;;5095316;27;20053;-71
2022/12/16 00:32:15;;;;;;;20.90;13.45;;;;;;;;;;5112533;27;21949;-71
2022/12/16 00:34:41;;;;;;;19.83;13.60;;;;;;;;;;5096468;27;20031;-71
2022/12/16 00:37:07;;;;;;;23.73;14.25;;;;;;;;;;5094886;27;20505;-71
2022/12/16 00:39:33;;;;;;;23.00;13.57;;;;;;;;;;5097303;27;21969;-71
2022/12/16 00:41:59;;;;;;;15.73;12.88;;;;;;;;;;5096848;27;20983;-71
2022/12/16 00:44:25;;;;;;;17.67;12.65;;;;;;;;;;5097032;27;20046;-71
2022/12/16 00:46:51;;;;;;;18.20;12.77;;;;;;;;;;5077066;27;20379;-71
2022/12/16 00:49:17;;;;;;;14.93;12.30;;;;;;;;;;5095655;27;20567;-71
2022/12/16 00:51:44;;;;;;;14.73;10.98;;;;;;;;;;5096001;27;20039;-71
2022/12/16 00:54:10;;;;;;;15.73;10.38;;;;;;;;;;5097362;27;20651;-71
2022/12/16 00:56:36;;;;;;;13.73;10.95;;;;;;;;;;5081519;27;20037;-71
2022/12/16 00:59:02;;;;;;;28.58;12.50;;;;;;;;;;5094736;27;20050;-71
2022/12/16 01:01:28;;;;;;;20.38;10.98;;;;;;;;;;5098269;27;20118;-71
2022/12/16 01:03:56;;;;;;;16.98;10.45;;;;;;;;;;5100783;27;20133;-71
2022/12/16 01:06:22;;;;;;;17.58;11.38;;;;;;;;;;5095085;27;20042;-71
2022/12/16 01:08:49;;;;;;;20.15;11.70;;;;;;;;;;5096915;27;20495;-71
2022/12/16 01:11:16;;;;;;;16.65;11.57;;;;;;;;;;5082477;27;20117;-71
2022/12/16 01:13:42;;;;;;;16.60;12.13;;;;;;;;;;5096760;27;20053;-71
2022/12/16 01:16:08;;;;;;;16.33;11.52;;;;;;;;;;5096430;27;20050;-71
2022/12/16 01:18:34;;;;;;;19.70;11.48;;;;;;;;;;5114925;27;20047;-71
2022/12/16 01:21:04;;;;;;;15.38;11.18;;;;;;;;;;5096565;27;20058;-71
2022/12/16 01:23:30;;;;;;;15.70;10.50;;;;;;;;;;5095172;27;20053;-72
2022/12/16 01:25:58;;;;;;;14.25;9.63;;;;;;;;;;5091020;27;20056;-71
2022/12/16 01:28:24;;;;;;;9.52;7.32;;;;;;;;;;5093360;27;20129;-72
2022/12/16 01:30:55;;;;;;;11.27;8.05;;;;;;;;;;5097527;27;20059;-71
2022/12/16 01:33:22;;;;;;;10.73;7.65;;;;;;;;;;5096563;27;20054;-72
2022/12/16 01:35:48;;;;;;;18.67;7.40;;;;;;;;;;5096004;27;20126;-72
2022/12/16 01:38:14;;;;;;;15.20;7.32;;;;;;;;;;5083311;27;20302;-72
2022/12/16 01:40:40;;;;;;;12.45;6.78;;;;;;;;;;5094766;27;20057;-72
2022/12/16 01:43:11;;;;;;;12.35;8.30;;;;;;;;;;5092708;27;20047;-72
2022/12/16 01:45:38;;;;;;;16.38;7.45;;;;;;;;;;5082708;27;20058;-71
2022/12/16 01:48:20;;;;;;;11.20;7.85;;;;;;;;;;5097040;27;20039;-72
2022/12/16 01:50:46;;;;;;;15.25;8.20;;;;;;;;;;5113353;27;20074;-72
2022/12/16 01:53:13;;;;;;;10.50;8.30;;;;;;;;;;5096040;27;20054;-72
2022/12/16 01:55:42;;;;;;;13.15;8.85;;;;;;;;;;5093631;27;20122;-71
2022/12/16 01:58:11;;;;;;;12.93;9.20;;;;;;;;;;5096769;27;20085;-71
2022/12/16 02:00:38;;;;;;;14.57;9.45;;;;;;;;;;5095647;27;20085;-71
2022/12/16 02:03:05;;;;;;;17.20;11.85;;;;;;;;;;5092187;27;20043;-72
2022/12/16 02:05:33;;;;;;;15.10;8.90;;;;;;;;;;5093683;27;20207;-71
2022/12/16 02:07:59;;;;;;;11.68;9.80;;;;;;;;;;5071095;27;20631;-72
2022/12/16 02:10:35;;;;;;;16.27;11.20;;;;;;;;;;5087865;27;20103;-72
2022/12/16 02:13:20;;;;;;;16.83;10.77;;;;;;;;;;5086445;27;20069;-72
2022/12/16 02:15:46;;;;;;;15.50;11.27;;;;;;;;;;5074773;27;22231;-72
2022/12/16 02:18:30;;;;;;;14.13;11.88;;;;;;;;;;5091237;27;20215;-72
2022/12/16 02:21:23;;;;;;;21.30;12.45;;;;;;;;;;5079072;27;20103;-72
2022/12/16 02:23:49;;;;;;;17.85;13.73;;;;;;;;;;5071813;27;20134;-72
2022/12/16 02:26:34;;;;;;;22.85;15.38;;;;;;;;;;5075243;27;20038;-72
2022/12/16 02:29:12;;;;;;;20.77;15.60;;;;;;;;;;5088651;27;20043;-72
2022/12/16 02:31:54;;;;;;;23.55;17.65;;;;;;;;;;5082077;27;20059;-72
2022/12/16 02:34:39;;;;;;;21.45;15.80;;;;;;;;;;5092031;27;20055;-72
2022/12/16 02:37:05;;;;;;;27.60;17.77;;;;;;;;;;5080383;27;20708;-72
2022/12/16 02:39:36;;;;;;;31.40;19.80;;;;;;;;;;5086375;27;20043;-72
2022/12/16 02:42:11;;;;;;;32.65;19.90;;;;;;;;;;5076242;27;20266;-72
2022/12/16 02:44:44;;;;;;;28.17;16.85;;;;;;;;;;5089412;27;20035;-72
2022/12/16 02:47:10;;;;;;;32.47;20.25;;;;;;;;;;5085221;27;20494;-72
2022/12/16 02:49:50;;;;;;;28.38;19.63;;;;;;;;;;5077213;27;20039;-71
2022/12/16 02:52:18;;;;;;;27.65;17.35;;;;;;;;;;5066347;27;20038;-71
2022/12/16 02:54:45;;;;;;;30.02;16.08;;;;;;;;;;5096897;27;20039;-71
2022/12/16 02:57:12;;;;;;;25.95;14.90;;;;;;;;;;5094651;27;20328;-72
2022/12/16 02:59:56;;;;;;;30.45;17.10;;;;;;;;;;5075308;27;20173;-71
2022/12/16 03:02:22;;;;;;;;;;;;;;;;;;5072838;27;20046;-71
2022/12/16 03:04:48;;;;;;;30.67;18.33;;;;;;;;;;5078763;27;19915;-71
2022/12/16 03:07:17;;;;;;;39.15;25.15;;;;;;;;;;5082229;27;20047;-71
2022/12/16 03:09:45;;;;;;;41.70;26.33;;;;;;;;;;5086782;27;20934;-72
2022/12/16 03:12:13;;;;;;;40.75;25.85;;;;;;;;;;5083913;27;20039;-72
2022/12/16 03:14:41;;;;;;;41.50;24.30;;;;;;;;;;5082896;27;20039;-71
2022/12/16 03:17:08;;;;;;;34.33;23.67;;;;;;;;;;5086352;27;20058;-71
2022/12/16 03:19:36;;;;;;;36.15;23.83;;;;;;;;;;5106259;27;20070;-72
2022/12/16 03:22:13;;;;;;;40.13;27.48;;;;;;;;;;5089710;27;20103;-71
2022/12/16 03:24:40;;;;;;;41.45;28.13;;;;;;;;;;5092293;27;20087;-71
2022/12/16 03:27:25;;;;;;;36.45;26.73;;;;;;;;;;5086150;27;20039;-71
2022/12/16 03:30:06;;;;;;;41.53;27.55;;;;;;;;;;5095019;27;20595;-71
2022/12/16 03:32:41;;;;;;;53.67;37.03;;;;;;;;;;5088404;27;20042;-71
2022/12/16 03:35:15;;;;;;;46.47;30.63;;;;;;;;;;5089788;27;22126;-71
2022/12/16 03:37:42;;;;;;;43.75;29.80;;;;;;;;;;5088300;27;20046;-71
2022/12/16 03:40:09;;;;;;;51.03;32.50;;;;;;;;;;5087754;27;20047;-71
2022/12/16 03:42:35;;;;;;;54.13;36.20;;;;;;;;;;5075961;27;22303;-71
2022/12/16 03:45:02;;;;;;;46.85;32.50;;;;;;;;;;5098907;27;20057;-71
2022/12/16 03:47:29;;;;;;;58.22;35.55;;;;;;;;;;5099844;27;20125;-72
2022/12/16 03:49:55;;;;;;;65.70;38.45;;;;;;;;;;5087807;27;20133;-71
2022/12/16 03:52:21;;;;;;;62.33;39.72;;;;;;;;;;5088524;27;21077;-71
2022/12/16 03:54:47;;;;;;;64.20;38.15;;;;;;;;;;5087673;27;20038;-71
2022/12/16 03:57:13;;;;;;;58.28;38.40;;;;;;;;;;5086881;27;20042;-71
2022/12/16 03:59:39;;;;;;;57.05;37.50;;;;;;;;;;5088083;27;20054;-71
2022/12/16 04:02:05;;;;;;;58.70;35.42;;;;;;;;;;5086597;27;21385;-71
2022/12/16 04:04:31;;;;;;;61.72;38.67;;;;;;;;;;5093019;27;20054;-71
2022/12/16 04:09:42;;;;;;;68.40;40.47;;;;;;;;;;5088077;27;20042;-71
2022/12/16 04:25:53;;;;;;;65.32;40.95;;;;;;;;;;5092108;27;20043;-71
2022/12/16 04:28:19;;;;;;;70.40;42.80;;;;;;;;;;5087679;27;20045;-71
2022/12/16 04:30:45;;;;;;;65.07;39.00;;;;;;;;;;5080680;27;20062;-71
